Time;durP1;ratioP1;P1;durP2;ratioP2;P2;SDS_P1;SDS_P2;PMS_P1;PMS_P2;Temp;Humidity;BMP_temperature;BMP_pressure;BME280_temperature;BME280_humidity;BME280_pressure;Samples;Min_cycle;Max_cycle;Signal;HPM_P1;HPM_P2
2023/03/21 00:01:37;;;;;;;;;;;8.50;99.90;;;;;;5055803;28;19925;-86
2023/03/21 00:04:02;;;;;;;;;;;8.50;99.90;;;;;;5039992;28;19929;-85
2023/03/21 00:06:28;;;;;;;;;;;8.50;99.90;;;;;;5038769;28;19925;-85
2023/03/21 00:08:53;;;;;;;;;;;8.50;99.90;;;;;;5022418;28;19925;-86
2023/03/21 00:11:20;;;;;;;;;;;8.50;99.90;;;;;;5038197;28;19948;-86
2023/03/21 00:13:46;;;;;;;;;;;8.50;99.90;;;;;;5038632;28;19933;-86
2023/03/21 00:16:14;;;;;;;;;;;8.50;99.90;;;;;;5038802;28;19933;-86
2023/03/21 00:18:45;;;;;;;;;;;8.50;99.90;;;;;;5055414;28;20011;-86
2023/03/21 00:21:15;;;;;;;;;;;8.50;99.90;;;;;;5055673;28;19929;-86
2023/03/21 00:23:41;;;;;;;;;;;8.50;99.90;;;;;;5055058;28;19929;-86
2023/03/21 00:26:08;;;;;;;;;;;8.50;99.90;;;;;;5055873;28;19951;-85
2023/03/21 00:28:43;;;;;;;;;;;8.50;99.90;;;;;;5055190;28;20442;-86
2023/03/21 00:31:09;;;;;;;;;;;8.50;99.90;;;;;;5022971;28;19990;-86
2023/03/21 00:33:37;;;;;;;;;;;8.60;99.90;;;;;;5054538;28;20344;-86
2023/03/21 00:36:03;;;;;;;;;;;8.50;99.90;;;;;;5055117;28;19924;-86
2023/03/21 00:38:29;;;;;;;;;;;8.50;99.90;;;;;;5054802;28;19925;-86
2023/03/21 00:40:54;;;;;;;;;;;8.50;99.90;;;;;;5088453;28;19985;-86
2023/03/21 00:43:22;;;;;;;;;;;8.60;99.90;;;;;;5055874;28;19931;-85
2023/03/21 00:45:48;;;;;;;;;;;8.60;99.90;;;;;;5039041;28;19975;-85
2023/03/21 00:48:14;;;;;;;;;;;8.60;99.90;;;;;;5055039;28;20335;-85
2023/03/21 00:50:41;;;;;;;;;;;8.60;99.90;;;;;;5054912;28;19925;-85
2023/03/21 00:53:06;;;;;;;;;;;8.60;99.90;;;;;;5038200;28;20027;-85
2023/03/21 00:55:32;;;;;;;;;;;8.60;99.90;;;;;;5038357;28;19972;-85
2023/03/21 00:57:58;;;;;;;;;;;8.50;99.90;;;;;;5055658;28;19951;-86
2023/03/21 01:00:24;;;;;;;;;;;8.60;99.90;;;;;;5037999;28;20471;-86
2023/03/21 01:02:55;;;;;;;;;;;8.50;99.90;;;;;;5054677;28;19928;-86
2023/03/21 01:08:13;;;;;;;;;;;8.50;99.90;;;;;;5054905;28;19925;-85
2023/03/21 01:10:39;;;;;;;;;;;8.50;99.90;;;;;;5053903;28;19932;-85
2023/03/21 01:13:05;;;;;;;;;;;8.50;99.90;;;;;;5054289;28;19924;-85
2023/03/21 01:15:30;;;;;;;;;;;8.50;99.90;;;;;;5037754;28;19928;-86
2023/03/21 01:17:56;;;;;;;;;;;8.50;99.90;;;;;;5054187;28;20284;-85
2023/03/21 01:20:22;;;;;;;;;;;8.50;99.90;;;;;;5054354;28;20291;-86
2023/03/21 01:22:47;;;;;;;;;;;8.50;99.90;;;;;;5037724;28;19929;-85
2023/03/21 01:25:13;;;;;;;;;;;8.50;99.90;;;;;;5054225;28;20016;-85
2023/03/21 01:27:39;;;;;;;;;;;8.50;99.90;;;;;;5053904;28;19971;-85
2023/03/21 01:30:05;;;;;;;;;;;8.50;99.90;;;;;;5037615;28;19949;-85
2023/03/21 01:32:30;;;;;;;;;;;8.50;99.90;;;;;;5037223;28;19979;-85
2023/03/21 01:34:56;;;;;;;;;;;8.50;99.90;;;;;;5037402;28;19929;-85
2023/03/21 01:37:21;;;;;;;;;;;8.50;99.90;;;;;;5036622;28;20261;-85
2023/03/21 01:39:47;;;;;;;;;;;8.50;99.90;;;;;;5053828;28;19925;-85
2023/03/21 01:42:13;;;;;;;;;;;8.50;99.90;;;;;;5053889;28;19925;-85
2023/03/21 01:44:52;;;;;;;;;;;8.50;99.90;;;;;;5053908;28;19925;-86
2023/03/21 01:47:18;;;;;;;;;;;8.60;99.90;;;;;;5053961;28;19982;-85
2023/03/21 01:49:45;;;;;;;;;;;8.60;99.90;;;;;;5037859;28;19925;-86
2023/03/21 01:52:12;;;;;;;;;;;8.60;99.90;;;;;;5053736;28;19976;-84
2023/03/21 01:54:40;;;;;;;;;;;8.60;99.90;;;;;;5053648;28;19964;-85
2023/03/21 01:57:10;;;;;;;;;;;8.60;99.90;;;;;;5053419;28;19929;-85
2023/03/21 01:59:41;;;;;;;;;;;8.60;99.90;;;;;;5086590;28;19925;-86
2023/03/21 02:02:10;;;;;;;;;;;8.60;99.90;;;;;;5070518;28;19925;-85
2023/03/21 02:04:36;;;;;;;;;;;8.60;99.90;;;;;;5087023;28;20383;-85
2023/03/21 02:07:06;;;;;;;;;;;8.60;99.90;;;;;;5070077;28;20387;-85
2023/03/21 02:09:34;;;;;;;;;;;8.60;99.90;;;;;;5036510;28;19929;-85
2023/03/21 02:12:00;;;;;;;;;;;8.60;99.90;;;;;;5053120;28;19983;-85
2023/03/21 02:14:26;;;;;;;;;;;8.60;99.90;;;;;;5053386;28;20357;-85
2023/03/21 02:17:14;;;;;;;;;;;8.60;99.90;;;;;;5053575;28;19928;-86
2023/03/21 02:19:51;;;;;;;;;;;8.60;99.90;;;;;;5053582;28;19932;-86
2023/03/21 02:22:25;;;;;;;;;;;8.60;99.90;;;;;;5054014;28;19925;-85
2023/03/21 02:24:51;;;;;;;;;;;8.60;99.90;;;;;;5036514;28;19952;-85
2023/03/21 02:27:20;;;;;;;;;;;8.60;99.90;;;;;;5036738;28;20365;-86
2023/03/21 02:29:50;;;;;;;;;;;8.60;99.90;;;;;;5053643;28;20003;-86
2023/03/21 02:32:18;;;;;;;;;;;8.60;99.90;;;;;;5053091;28;19925;-85
2023/03/21 02:34:54;;;;;;;;;;;8.60;99.90;;;;;;5052980;28;19925;-85
2023/03/21 02:37:40;;;;;;;;;;;8.60;99.90;;;;;;5070257;28;20358;-86
2023/03/21 02:40:09;;;;;;;;;;;8.60;99.90;;;;;;5035949;28;20011;-85
2023/03/21 02:42:41;;;;;;;;;;;8.60;99.90;;;;;;5052535;28;19925;-85
2023/03/21 02:45:15;;;;;;;;;;;8.60;99.90;;;;;;5053071;28;19940;-85
2023/03/21 02:47:43;;;;;;;;;;;8.70;99.90;;;;;;5052877;28;19925;-85
2023/03/21 02:50:15;;;;;;;;;;;8.70;99.90;;;;;;5051914;28;19925;-85
2023/03/21 02:52:42;;;;;;;;;;;8.70;99.90;;;;;;5069239;28;19925;-85
2023/03/21 02:55:12;;;;;;;;;;;8.60;99.90;;;;;;5036864;28;19994;-85
2023/03/21 02:57:40;;;;;;;;;;;8.70;99.90;;;;;;5069406;28;20023;-85
2023/03/21 03:00:10;;;;;;;;;;;7.60;99.90;;;;;;5052336;28;20024;-85
2023/03/21 03:02:36;;;;;;;;;;;8.60;99.90;;;;;;5036961;28;19925;-86
2023/03/21 03:05:09;;;;;;;;;;;8.70;99.90;;;;;;5035935;28;19924;-85
2023/03/21 03:07:40;;;;;;;;;;;8.70;99.90;;;;;;5052952;28;19976;-85
2023/03/21 03:10:12;;;;;;;;;;;8.70;99.90;;;;;;5052240;28;19932;-86
2023/03/21 03:12:56;;;;;;;;;;;8.70;99.90;;;;;;5052487;28;19976;-85
2023/03/21 03:15:44;;;;;;;;;;;8.70;99.90;;;;;;5069639;28;19924;-85
2023/03/21 03:18:19;;;;;;;;;;;8.70;99.90;;;;;;5052151;28;19925;-85
2023/03/21 03:21:14;;;;;;;;;;;8.70;99.90;;;;;;5035952;28;19925;-85
2023/03/21 03:23:42;;;;;;;;;;;8.70;99.90;;;;;;4983806;28;20396;-85
2023/03/21 03:26:14;;;;;;;;;;;8.70;99.90;;;;;;5036758;28;19925;-86
2023/03/21 03:28:49;;;;;;;;;;;8.70;99.90;;;;;;5052551;28;19924;-85
2023/03/21 03:31:20;;;;;;;;;;;8.70;99.90;;;;;;5035895;28;20281;-85
2023/03/21 03:33:50;;;;;;;;;;;8.70;99.90;;;;;;5035930;28;20265;-85
2023/03/21 03:36:17;;;;;;;;;;;8.70;99.90;;;;;;5052374;28;19931;-85
2023/03/21 03:38:45;;;;;;;;;;;8.70;99.90;;;;;;5052352;28;19936;-85
2023/03/21 03:41:14;;;;;;;;;;;8.70;99.90;;;;;;5053115;28;19976;-86
2023/03/21 03:43:43;;;;;;;;;;;8.70;99.90;;;;;;5052070;28;19932;-86
2023/03/21 03:46:13;;;;;;;;;;;8.70;99.90;;;;;;5069039;28;19929;-85
2023/03/21 03:48:51;;;;;;;;;;;8.70;99.90;;;;;;5052307;28;20412;-85
2023/03/21 03:51:22;;;;;;;;;;;8.70;99.90;;;;;;5069085;28;19924;-85
2023/03/21 03:53:51;;;;;;;;;;;8.70;99.90;;;;;;5068610;28;19975;-86
2023/03/21 03:56:17;;;;;;;;;;;8.70;99.90;;;;;;5068986;28;19925;-85
2023/03/21 03:58:42;;;;;;;;;;;8.70;99.90;;;;;;5053012;28;20420;-85
2023/03/21 04:01:08;;;;;;;;;;;8.80;99.90;;;;;;5070130;28;20023;-85
2023/03/21 04:03:36;;;;;;;;;;;8.70;99.90;;;;;;5056618;28;20365;-85
2023/03/21 04:06:02;;;;;;;;;;;8.80;99.90;;;;;;5056660;28;19925;-85
2023/03/21 04:08:28;;;;;;;;;;;8.80;99.90;;;;;;5055687;28;19971;-85
2023/03/21 04:10:54;;;;;;;;;;;8.80;99.90;;;;;;5055200;28;19932;-85
2023/03/21 04:13:20;;;;;;;;;;;8.80;99.90;;;;;;5039068;28;19925;-85
2023/03/21 04:15:46;;;;;;;;;;;8.80;99.90;;;;;;5038913;28;19936;-85
2023/03/21 04:18:11;;;;;;;;;;;8.80;99.90;;;;;;5055594;28;19924;-85
2023/03/21 04:20:37;;;;;;;;;;;8.80;99.90;;;;;;5055723;28;19929;-85
2023/03/21 04:23:03;;;;;;;;;;;8.70;99.90;;;;;;5039737;28;20023;-85
2023/03/21 04:25:29;;;;;;;;;;;8.70;99.90;;;;;;5022297;28;19994;-85
2023/03/21 04:27:55;;;;;;;;;;;8.70;99.90;;;;;;5055432;28;19925;-86
2023/03/21 04:30:23;;;;;;;;;;;8.70;99.90;;;;;;5055693;28;19936;-86
2023/03/21 04:32:52;;;;;;;;;;;8.70;99.90;;;;;;5039305;28;19925;-85
2023/03/21 04:35:19;;;;;;;;;;;8.70;99.90;;;;;;5055159;28;20015;-85
2023/03/21 04:37:45;;;;;;;;;;;8.70;99.90;;;;;;5088306;28;19925;-85
2023/03/21 04:40:11;;;;;;;;;;;8.70;99.90;;;;;;5055979;28;19931;-86
2023/03/21 04:42:36;;;;;;;;;;;8.70;99.90;;;;;;5054846;28;19932;-86
2023/03/21 04:45:02;;;;;;;;;;;8.70;99.90;;;;;;5038288;28;20302;-85
2023/03/21 04:47:28;;;;;;;;;;;8.70;99.90;;;;;;5055020;28;19932;-85
2023/03/21 04:49:54;;;;;;;;;;;8.70;99.90;;;;;;5038072;28;20371;-85
2023/03/21 04:52:19;;;;;;;;;;;8.70;99.90;;;;;;5038574;28;19925;-85
2023/03/21 04:54:45;;;;;;;;;;;8.70;99.90;;;;;;5054615;28;19924;-85
2023/03/21 04:57:11;;;;;;;;;;;8.70;99.90;;;;;;5054372;28;19928;-85
2023/03/21 04:59:36;;;;;;;;;;;8.70;99.90;;;;;;5054897;28;19925;-85
2023/03/21 05:02:02;;;;;;;;;;;8.70;99.90;;;;;;5054507;28;19925;-85
2023/03/21 05:04:28;;;;;;;;;;;8.70;99.90;;;;;;5054472;28;19924;-85
2023/03/21 05:06:54;;;;;;;;;;;8.70;99.90;;;;;;5038019;28;19936;-84
2023/03/21 05:09:21;;;;;;;;;;;8.70;99.90;;;;;;5037707;28;20023;-85
2023/03/21 05:11:47;;;;;;;;;;;8.70;99.90;;;;;;5037058;28;19925;-85
2023/03/21 05:14:14;;;;;;;;;;;8.70;99.90;;;;;;5053742;28;19924;-86
2023/03/21 05:16:47;;;;;;;;;;;8.70;99.90;;;;;;5054487;28;19983;-85
2023/03/21 05:19:13;;;;;;;;;;;8.70;99.90;;;;;;5037561;28;19932;-85
2023/03/21 05:21:42;;;;;;;;;;;8.70;99.90;;;;;;5037441;28;19986;-85
2023/03/21 05:24:11;;;;;;;;;;;8.70;99.90;;;;;;5053655;28;19925;-85
2023/03/21 05:26:37;;;;;;;;;;;8.70;99.90;;;;;;5070288;28;19925;-85
2023/03/21 05:29:02;;;;;;;;;;;8.70;99.90;;;;;;5071579;28;19924;-85
2023/03/21 05:31:28;;;;;;;;;;;8.70;99.90;;;;;;5038087;28;19948;-85
2023/03/21 05:33:54;;;;;;;;;;;8.70;99.90;;;;;;5037713;28;20344;-85
2023/03/21 05:36:19;;;;;;;;;;;8.70;99.90;;;;;;5053977;28;19931;-85
2023/03/21 05:38:45;;;;;;;;;;;8.70;99.90;;;;;;5020813;28;19986;-85
2023/03/21 05:41:14;;;;;;;;;;;8.70;99.90;;;;;;5037925;28;19935;-85
2023/03/21 05:43:40;;;;;;;;;;;8.70;99.90;;;;;;5054129;28;19925;-85
2023/03/21 05:46:06;;;;;;;;;;;8.70;99.90;;;;;;5037071;28;20019;-85
2023/03/21 05:48:31;;;;;;;;;;;8.80;99.90;;;;;;5053802;28;20261;-85
2023/03/21 05:50:57;;;;;;;;;;;8.80;99.90;;;;;;5036888;28;19979;-85
2023/03/21 05:53:23;;;;;;;;;;;8.80;99.90;;;;;;5036742;28;19925;-85
2023/03/21 05:55:48;;;;;;;;;;;8.80;99.90;;;;;;5053893;28;19975;-85
2023/03/21 05:58:14;;;;;;;;;;;8.80;99.90;;;;;;5037078;28;19932;-85
2023/03/21 06:00:39;;;;;;;;;;;8.80;99.90;;;;;;5036944;28;19925;-85
2023/03/21 06:03:05;;;;;;;;;;;8.80;99.90;;;;;;5053386;28;19974;-85
2023/03/21 06:05:31;;;;;;;;;;;8.80;99.90;;;;;;5036876;28;19929;-85
2023/03/21 06:07:56;;;;;;;;;;;8.80;99.90;;;;;;5036960;28;19932;-85
2023/03/21 06:10:22;;;;;;;;;;;8.80;99.90;;;;;;5036520;28;19924;-85
2023/03/21 06:12:48;;;;;;;;;;;8.80;99.90;;;;;;5036519;28;20312;-85
2023/03/21 06:15:14;;;;;;;;;;;8.80;99.90;;;;;;5036805;28;19982;-84
2023/03/21 06:17:39;;;;;;;;;;;8.80;99.90;;;;;;5036841;28;19925;-85
2023/03/21 06:20:06;;;;;;;;;;;8.80;99.90;;;;;;5037002;28;19974;-86
2023/03/21 06:22:32;;;;;;;;;;;8.80;99.90;;;;;;5053312;28;19981;-86
2023/03/21 06:24:58;;;;;;;;;;;8.80;99.90;;;;;;5052861;28;20359;-86
2023/03/21 06:27:23;;;;;;;;;;;8.80;99.90;;;;;;5054517;28;20032;-86
2023/03/21 06:29:49;;;;;;;;;;;8.80;99.90;;;;;;5053110;28;19971;-86
2023/03/21 06:32:15;;;;;;;;;;;8.90;99.90;;;;;;5052661;28;19925;-84
2023/03/21 06:34:41;;;;;;;;;;;8.80;99.90;;;;;;5069761;28;19928;-86
2023/03/21 06:37:07;;;;;;;;;;;8.90;99.90;;;;;;5037171;28;20341;-84
2023/03/21 06:39:32;;;;;;;;;;;8.90;99.90;;;;;;5036209;28;19924;-87
2023/03/21 06:41:58;;;;;;;;;;;8.90;99.90;;;;;;5036497;28;20025;-86
2023/03/21 06:44:24;;;;;;;;;;;8.90;99.90;;;;;;5052974;28;20411;-86
2023/03/21 06:46:50;;;;;;;;;;;8.90;99.90;;;;;;5035328;28;20071;-84
2023/03/21 06:49:16;;;;;;;;;;;8.90;99.90;;;;;;5052482;28;19936;-84
2023/03/21 06:51:41;;;;;;;;;;;8.90;99.90;;;;;;5052301;28;19925;-85
2023/03/21 06:54:07;;;;;;;;;;;8.90;99.90;;;;;;5052918;28;19931;-84
2023/03/21 06:56:33;;;;;;;;;;;8.90;99.90;;;;;;5052655;28;19925;-84
2023/03/21 06:58:58;;;;;;;;;;;8.90;99.90;;;;;;5036084;28;19978;-85
2023/03/21 07:01:26;;;;;;;;;;;9.00;99.90;;;;;;5035994;28;19925;-85
2023/03/21 07:03:52;;;;;;;;;;;9.00;99.90;;;;;;5020353;28;20016;-84
2023/03/21 07:06:18;;;;;;;;;;;9.00;99.90;;;;;;5035909;28;20361;-85
2023/03/21 07:08:43;;;;;;;;;;;9.00;99.90;;;;;;5052270;28;20012;-85
2023/03/21 07:11:09;;;;;;;;;;;9.10;99.90;;;;;;5035662;28;19987;-85
2023/03/21 07:13:35;;;;;;;;;;;9.10;99.90;;;;;;5035540;28;19932;-85
2023/03/21 07:16:00;;;;;;;;;;;9.10;99.90;;;;;;5069192;28;20454;-85
2023/03/21 07:18:26;;;;;;;;;;;9.10;99.90;;;;;;5035809;28;19932;-85
2023/03/21 07:20:52;;;;;;;;;;;9.10;99.90;;;;;;5086001;28;19986;-86
2023/03/21 07:23:18;;;;;;;;;;;9.20;99.90;;;;;;5019494;28;19925;-84
2023/03/21 07:25:46;;;;;;;;;;;9.20;99.90;;;;;;5053114;28;19925;-85
2023/03/21 07:28:11;;;;;;;;;;;9.20;99.90;;;;;;5035727;28;19936;-84
2023/03/21 07:30:37;;;;;;;;;;;9.20;99.90;;;;;;5035725;28;19925;-85
2023/03/21 07:33:02;;;;;;;;;;;9.20;99.90;;;;;;5035366;28;20015;-84
2023/03/21 07:35:28;;;;;;;;;;;9.20;99.90;;;;;;5053403;28;19976;-84
2023/03/21 07:37:54;;;;;;;;;;;9.20;99.90;;;;;;5039632;28;19978;-85
2023/03/21 07:40:19;;;;;;;;;;;9.20;99.90;;;;;;5039573;28;19933;-84
2023/03/21 07:42:47;;;;;;;;;;;9.30;99.90;;;;;;5023278;28;20016;-85
2023/03/21 07:45:19;;;;;;;;;;;9.30;99.90;;;;;;5039512;28;19925;-84
2023/03/21 07:47:45;;;;;;;;;;;9.30;99.90;;;;;;5041191;28;19929;-87
2023/03/21 07:50:11;;;;;;;;;;;9.30;99.90;;;;;;5055819;28;20383;-85
2023/03/21 07:52:37;;;;;;;;;;;9.30;99.90;;;;;;5055683;28;19925;-85
2023/03/21 07:55:03;;;;;;;;;;;9.30;99.90;;;;;;5072519;28;19928;-85
2023/03/21 07:57:28;;;;;;;;;;;9.30;99.90;;;;;;5055835;28;20394;-85
2023/03/21 07:59:54;;;;;;;;;;;9.30;99.90;;;;;;5022538;28;19924;-85
2023/03/21 08:02:20;;;;;;;;;;;9.40;99.90;;;;;;5039016;28;20019;-85
2023/03/21 08:04:45;;;;;;;;;;;9.40;99.90;;;;;;5038979;28;19932;-86
2023/03/21 08:07:11;;;;;;;;;;;9.40;99.90;;;;;;5022313;28;19925;-83
2023/03/21 08:09:37;;;;;;;;;;;9.40;99.90;;;;;;5055365;28;19925;-84
2023/03/21 08:12:03;;;;;;;;;;;9.40;99.90;;;;;;5055081;28;20360;-83
2023/03/21 08:14:29;;;;;;;;;;;9.40;99.90;;;;;;5039381;28;19979;-86
2023/03/21 08:16:54;;;;;;;;;;;9.50;99.90;;;;;;5022169;28;19956;-85
2023/03/21 08:19:20;;;;;;;;;;;9.50;99.90;;;;;;5039514;28;19925;-85
2023/03/21 08:21:50;;;;;;;;;;;9.50;99.90;;;;;;5038876;28;20333;-85
2023/03/21 08:24:16;;;;;;;;;;;9.50;99.90;;;;;;5038798;28;19925;-86
2023/03/21 08:26:43;;;;;;;;;;;9.50;99.90;;;;;;5038152;28;19931;-84
2023/03/21 08:29:08;;;;;;;;;;;9.50;99.90;;;;;;5055044;28;19995;-84
2023/03/21 08:31:34;;;;;;;;;;;9.50;99.90;;;;;;5038749;28;19928;-85
2023/03/21 08:34:00;;;;;;;;;;;9.50;99.90;;;;;;5021457;28;20425;-85
2023/03/21 08:36:26;;;;;;;;;;;9.50;99.90;;;;;;5055089;28;20008;-85
2023/03/21 08:38:55;;;;;;;;;;;9.50;99.90;;;;;;5055680;28;19932;-85
2023/03/21 08:41:23;;;;;;;;;;;9.60;99.90;;;;;;5038337;28;19929;-85
2023/03/21 08:43:48;;;;;;;;;;;9.50;99.90;;;;;;5054941;28;20023;-84
2023/03/21 08:46:14;;;;;;;;;;;9.50;99.90;;;;;;5038124;28;20014;-84
2023/03/21 08:48:40;;;;;;;;;;;9.50;99.90;;;;;;5021688;28;20052;-85
2023/03/21 08:51:05;;;;;;;;;;;9.50;99.90;;;;;;5038056;28;19931;-85
2023/03/21 08:53:31;;;;;;;;;;;9.50;99.90;;;;;;5022093;28;19935;-85
2023/03/21 08:55:57;;;;;;;;;;;9.50;99.90;;;;;;5038229;28;19925;-84
2023/03/21 08:58:23;;;;;;;;;;;9.50;99.90;;;;;;5021554;28;20473;-85
2023/03/21 09:00:48;;;;;;;;;;;9.50;99.90;;;;;;5037682;28;19988;-84
2023/03/21 09:03:14;;;;;;;;;;;9.50;99.90;;;;;;5038820;28;19932;-85
2023/03/21 09:05:40;;;;;;;;;;;9.50;99.90;;;;;;5021405;28;20011;-85
2023/03/21 09:08:05;;;;;;;;;;;9.60;99.90;;;;;;5037848;28;20383;-84
2023/03/21 09:10:31;;;;;;;;;;;9.60;99.90;;;;;;5054950;28;20020;-84
2023/03/21 09:12:57;;;;;;;;;;;9.60;99.90;;;;;;5054118;28;19929;-84
2023/03/21 09:15:24;;;;;;;;;;;9.70;99.90;;;;;;5054315;28;19925;-84
2023/03/21 09:17:51;;;;;;;;;;;9.70;99.90;;;;;;5054196;28;19996;-85
2023/03/21 09:20:19;;;;;;;;;;;9.70;99.90;;;;;;5053989;28;19925;-84
2023/03/21 09:22:46;;;;;;;;;;;9.60;99.90;;;;;;5054928;28;19974;-84
2023/03/21 09:25:12;;;;;;;;;;;9.60;99.90;;;;;;5054829;28;19932;-84
2023/03/21 09:27:38;;;;;;;;;;;9.60;99.90;;;;;;5070792;28;19924;-85
2023/03/21 09:30:06;;;;;;;;;;;9.60;99.90;;;;;;5054325;28;19932;-85
2023/03/21 09:32:32;;;;;;;;;;;9.60;99.90;;;;;;5070535;28;19935;-85
2023/03/21 09:34:58;;;;;;;;;;;9.60;99.90;;;;;;5038310;28;19964;-85
2023/03/21 09:37:24;;;;;;;;;;;9.60;99.90;;;;;;5037262;28;19975;-84
2023/03/21 09:39:50;;;;;;;;;;;9.60;99.90;;;;;;5053728;28;19971;-85
2023/03/21 09:42:26;;;;;;;;;;;9.70;99.90;;;;;;5037333;28;20337;-84
2023/03/21 09:44:52;;;;;;;;;;;9.70;99.90;;;;;;5053789;28;19929;-85
2023/03/21 09:47:23;;;;;;;;;;;9.70;99.90;;;;;;5037924;28;19924;-85
2023/03/21 09:49:56;;;;;;;;;;;9.70;99.90;;;;;;5036944;28;19924;-84
2023/03/21 09:52:42;;;;;;;;;;;9.60;99.90;;;;;;5053576;28;20284;-84
2023/03/21 09:55:20;;;;;;;;;;;9.60;99.90;;;;;;5070761;28;19924;-86
2023/03/21 09:57:47;;;;;;;;;;;9.60;99.90;;;;;;5053237;28;19931;-85
2023/03/21 10:00:24;;;;;;;;;;;9.70;99.90;;;;;;5053774;28;19925;-85
2023/03/21 10:02:52;;;;;;;;;;;9.60;99.90;;;;;;5037455;28;19925;-85
2023/03/21 10:05:18;;;;;;;;;;;9.70;99.90;;;;;;5053275;28;19991;-85
2023/03/21 10:07:57;;;;;;;;;;;9.70;99.90;;;;;;5036823;28;19925;-85
2023/03/21 10:10:27;;;;;;;;;;;9.70;99.90;;;;;;5052574;28;19951;-85
2023/03/21 10:12:54;;;;;;;;;;;9.70;99.90;;;;;;5053127;28;19924;-85
2023/03/21 10:15:21;;;;;;;;;;;9.70;99.90;;;;;;5036003;28;19932;-84
2023/03/21 10:18:00;;;;;;;;;;;9.70;99.90;;;;;;5052459;28;19925;-85
2023/03/21 10:20:29;;;;;;;;;;;9.80;99.90;;;;;;5069142;28;20335;-84
2023/03/21 10:22:56;;;;;;;;;;;9.80;99.90;;;;;;5052207;28;19983;-85
2023/03/21 10:25:30;;;;;;;;;;;9.70;99.90;;;;;;5052283;28;20314;-85
2023/03/21 10:27:56;;;;;;;;;;;9.70;99.90;;;;;;5052884;28;19980;-85
2023/03/21 10:30:36;;;;;;;;;;;9.80;99.90;;;;;;5051937;28;19963;-84
2023/03/21 10:33:04;;;;;;;;;;;9.80;99.90;;;;;;5052633;28;19925;-85
2023/03/21 10:35:32;;;;;;;;;;;9.80;99.90;;;;;;5035229;28;19924;-84
2023/03/21 10:37:59;;;;;;;;;;;9.80;99.90;;;;;;5051946;28;19929;-85
2023/03/21 10:40:24;;;;;;;;;;;9.90;99.90;;;;;;5052018;28;19924;-84
2023/03/21 10:42:50;;;;;;;;;;;10.00;99.90;;;;;;5053060;28;20143;-86
2023/03/21 10:45:18;;;;;;;;;;;10.00;99.90;;;;;;5035493;28;20257;-84
2023/03/21 10:47:46;;;;;;;;;;;10.10;99.90;;;;;;5051797;28;19975;-84
2023/03/21 10:50:14;;;;;;;;;;;10.10;99.90;;;;;;5052009;28;20329;-84
2023/03/21 10:52:43;;;;;;;;;;;10.20;99.90;;;;;;5051592;28;20326;-84
2023/03/21 10:55:28;;;;;;;;;;;10.20;99.90;;;;;;5051311;28;19925;-84
2023/03/21 10:57:56;;;;;;;;;;;10.30;99.90;;;;;;5085215;28;19925;-83
2023/03/21 11:00:24;;;;;;;;;;;10.40;99.90;;;;;;5052137;28;20427;-84
2023/03/21 11:02:52;;;;;;;;;;;10.40;99.90;;;;;;5035945;28;20350;-84
2023/03/21 11:05:17;;;;;;;;;;;10.50;99.90;;;;;;5034984;28;19924;-84
2023/03/21 11:07:43;;;;;;;;;;;10.50;99.90;;;;;;5034727;28;19925;-85
2023/03/21 11:10:13;;;;;;;;;;;10.70;99.90;;;;;;4987850;28;1832616;-84
2023/03/21 11:12:40;;;;;;;;;;;10.80;99.90;;;;;;5090699;28;20375;-84
2023/03/21 11:15:27;;;;;;;;;;;12.00;99.90;;;;;;5039912;28;19931;-84
2023/03/21 11:17:52;;;;;;;;;;;11.00;99.90;;;;;;5056562;28;19925;-85
2023/03/21 11:20:19;;;;;;;;;;;11.10;99.90;;;;;;5040081;28;19947;-85
2023/03/21 11:22:45;;;;;;;;;;;11.10;99.90;;;;;;5056437;28;20455;-86
2023/03/21 11:25:30;;;;;;;;;;;11.20;99.90;;;;;;5073148;28;19935;-85
2023/03/21 11:27:55;;;;;;;;;;;11.30;99.90;;;;;;5056225;28;20018;-84
2023/03/21 11:30:23;;;;;;;;;;;11.30;99.90;;;;;;5057083;28;19929;-85
2023/03/21 11:32:56;;;;;;;;;;;11.40;99.90;;;;;;5055926;28;19925;-85
2023/03/21 11:35:23;;;;;;;;;;;11.50;99.90;;;;;;5039407;28;20396;-86
2023/03/21 11:37:53;;;;;;;;;;;11.60;99.90;;;;;;5039081;28;19968;-86
2023/03/21 11:40:26;;;;;;;;;;;11.60;99.90;;;;;;5039626;28;19972;-85
2023/03/21 11:42:53;;;;;;;;;;;11.60;99.90;;;;;;5055857;28;19978;-85
2023/03/21 11:45:22;;;;;;;;;;;11.60;99.90;;;;;;5039447;28;19925;-85
2023/03/21 11:47:49;;;;;;;;;;;11.70;99.90;;;;;;5056224;28;19979;-84
2023/03/21 11:50:16;;;;;;;;;;;11.70;99.90;;;;;;5023072;28;19971;-85
2023/03/21 11:52:50;;;;;;;;;;;11.70;99.90;;;;;;5055779;28;20019;-84
2023/03/21 11:55:15;;;;;;;;;;;11.70;99.90;;;;;;5056318;28;20257;-85
2023/03/21 11:57:47;;;;;;;;;;;11.70;99.90;;;;;;5056681;28;19924;-85
2023/03/21 12:00:19;;;;;;;;;;;11.80;99.90;;;;;;5055879;28;19978;-85
2023/03/21 12:02:46;;;;;;;;;;;11.90;99.90;;;;;;5039245;28;19978;-87
2023/03/21 12:05:22;;;;;;;;;;;11.90;99.90;;;;;;5055796;28;19991;-86
2023/03/21 12:08:05;;;;;;;;;;;11.90;99.90;;;;;;5056134;28;19979;-87
2023/03/21 12:10:40;;;;;;;;;;;11.80;99.90;;;;;;5054986;28;19925;-86
2023/03/21 12:13:15;;;;;;;;;;;11.80;99.90;;;;;;5054937;28;19931;-84
2023/03/21 12:16:00;;;;;;;;;;;11.70;99.90;;;;;;5056416;28;19932;-84
2023/03/21 12:18:45;;;;;;;;;;;11.70;99.90;;;;;;5055080;28;19975;-86
2023/03/21 12:21:11;;;;;;;;;;;11.70;99.90;;;;;;5037775;28;19929;-87
2023/03/21 12:23:55;;;;;;;;;;;11.70;99.90;;;;;;5088888;28;20015;-84
2023/03/21 12:26:29;;;;;;;;;;;11.70;99.90;;;;;;5088803;28;19951;-85
2023/03/21 12:29:04;;;;;;;;;;;11.70;99.90;;;;;;5055507;28;19929;-84
2023/03/21 12:31:42;;;;;;;;;;;11.70;99.90;;;;;;5038608;28;19925;-84
2023/03/21 12:34:23;;;;;;;;;;;11.70;99.90;;;;;;5055069;28;20333;-84
2023/03/21 12:37:07;;;;;;;;;;;11.60;99.90;;;;;;5055888;28;19929;-83
2023/03/21 12:39:37;;;;;;;;;;;11.50;99.90;;;;;;5088542;28;19924;-85
2023/03/21 12:42:12;;;;;;;;;;;11.40;99.90;;;;;;5037933;28;19925;-85
2023/03/21 12:44:40;;;;;;;;;;;11.40;99.90;;;;;;5054972;28;20395;-84
2023/03/21 12:47:14;;;;;;;;;;;11.40;99.90;;;;;;5038926;28;20014;-84
2023/03/21 12:49:45;;;;;;;;;;;11.30;99.90;;;;;;5038562;28;19924;-83
2023/03/21 12:52:12;;;;;;;;;;;11.40;99.90;;;;;;5071612;28;20350;-86
2023/03/21 12:54:40;;;;;;;;;;;11.30;99.90;;;;;;5071304;28;19932;-86
2023/03/21 12:57:14;;;;;;;;;;;11.40;99.90;;;;;;5038761;28;19925;-84
2023/03/21 12:59:43;;;;;;;;;;;11.40;99.90;;;;;;5038062;28;19990;-86
2023/03/21 13:02:32;;;;;;;;;;;11.50;99.90;;;;;;5037596;28;20388;-83
2023/03/21 13:04:59;;;;;;;;;;;11.50;99.90;;;;;;5030020;28;19925;-87
2023/03/21 13:07:25;;;;;;;;;;;11.50;99.90;;;;;;5038116;28;19978;-85
2023/03/21 13:09:54;;;;;;;;;;;11.60;99.90;;;;;;5070820;28;19929;-86
2023/03/21 13:12:31;;;;;;;;;;;11.60;99.90;;;;;;5054793;28;20435;-88
2023/03/21 13:15:05;;;;;;;;;;;12.90;99.90;;;;;;5038371;28;19925;-85
2023/03/21 13:17:39;;;;;;;;;;;11.80;99.90;;;;;;5056116;28;19952;-85
2023/03/21 13:20:23;;;;;;;;;;;12.00;99.90;;;;;;5037913;28;19924;-87
2023/03/21 13:22:49;;;;;;;;;;;12.10;99.90;;;;;;5070889;28;19982;-87
2023/03/21 13:25:19;;;;;;;;;;;12.30;99.90;;;;;;5020809;28;20045;-86
2023/03/21 13:27:50;;;;;;;;;;;12.50;99.90;;;;;;5037582;28;20028;-86
2023/03/21 13:30:18;;;;;;;;;;;12.70;99.90;;;;;;5037552;28;19925;-86
2023/03/21 13:32:45;;;;;;;;;;;12.80;99.90;;;;;;5053738;28;19928;-84
2023/03/21 13:35:19;;;;;;;;;;;12.80;99.90;;;;;;5036695;28;20015;-85
2023/03/21 13:38:15;;;;;;;;;;;12.80;99.90;;;;;;5054171;28;19932;-84
2023/03/21 13:40:43;;;;;;;;;;;12.70;99.90;;;;;;5024255;28;19929;-84
2023/03/21 13:43:28;;;;;;;;;;;12.70;99.90;;;;;;5037035;28;20422;-85
2023/03/21 13:45:53;;;;;;;;;;;12.60;99.90;;;;;;5087225;28;19925;-85
2023/03/21 13:48:38;;;;;;;;;;;12.60;99.90;;;;;;5037313;28;19983;-86
2023/03/21 13:51:04;;;;;;;;;;;12.60;99.90;;;;;;5070448;28;19924;-86
2023/03/21 13:53:31;;;;;;;;;;;12.70;99.90;;;;;;5053512;28;19980;-87
2023/03/21 13:56:06;;;;;;;;;;;12.70;99.90;;;;;;5037527;28;19948;-85
2023/03/21 13:58:48;;;;;;;;;;;12.70;99.90;;;;;;5053745;28;19925;-86
2023/03/21 14:01:26;;;;;;;;;;;12.70;99.90;;;;;;5053723;28;19925;-85
2023/03/21 14:03:59;;;;;;;;;;;12.70;99.90;;;;;;5036743;28;19975;-86
2023/03/21 14:06:34;;;;;;;;;;;12.80;99.90;;;;;;5053331;28;19929;-88
2023/03/21 14:09:02;;;;;;;;;;;12.80;99.90;;;;;;5036476;28;20376;-89
2023/03/21 14:11:30;;;;;;;;;;;13.20;99.90;;;;;;5035986;28;19964;-85
2023/03/21 14:13:57;;;;;;;;;;;12.90;99.90;;;;;;5036233;28;19928;-84
2023/03/21 14:16:25;;;;;;;;;;;13.00;99.90;;;;;;5036555;28;19925;-86
2023/03/21 14:18:52;;;;;;;;;;;13.00;99.90;;;;;;5036432;28;20027;-87
2023/03/21 14:21:22;;;;;;;;;;;13.10;99.90;;;;;;5036483;28;19932;-84
2023/03/21 14:23:58;;;;;;;;;;;13.30;99.90;;;;;;5052968;28;19960;-85
2023/03/21 14:26:25;;;;;;;;;;;13.50;99.90;;;;;;5052940;28;19924;-85
2023/03/21 14:28:50;;;;;;;;;;;13.60;99.90;;;;;;5052922;28;20405;-85
2023/03/21 14:31:17;;;;;;;;;;;13.70;99.90;;;;;;5036292;28;19925;-84
2023/03/21 14:33:52;;;;;;;;;;;13.80;99.90;;;;;;5052501;28;19925;-84
2023/03/21 14:36:28;;;;;;;;;;;13.90;99.90;;;;;;5052875;28;19925;-84
2023/03/21 14:38:56;;;;;;;;;;;13.90;99.90;;;;;;5052705;28;19931;-85